Time;durP1;ratioP1;P1;durP2;ratioP2;P2;SDS_P1;SDS_P2;PMS_P1;PMS_P2;Temp;Humidity;BMP_temperature;BMP_pressure;BME280_temperature;BME280_humidity;BME280_pressure;Samples;Min_cycle;Max_cycle;Signal;HPM_P1;HPM_P2
2022/11/19 00:03:44;;;;;;;9.93;5.72;;;;;;;7.92;100.00;99495.53;20663903;28;20085;-71
2022/11/19 00:13:52;;;;;;;12.23;5.63;;;;;;;7.90;100.00;99499.88;20664593;28;20058;-70
2022/11/19 00:23:53;;;;;;;12.10;5.53;;;;;;;7.88;100.00;99502.53;20603343;28;20459;-70
2022/11/19 00:33:55;;;;;;;12.77;6.00;;;;;;;7.86;100.00;99496.50;20582751;28;20078;-70
2022/11/19 00:43:56;;;;;;;14.32;6.38;;;;;;;7.81;100.00;99482.72;20582043;28;20054;-70
2022/11/19 00:53:58;;;;;;;11.57;4.85;;;;;;;7.70;100.00;99485.50;20582194;28;20053;-71
2022/11/19 01:03:59;;;;;;;9.57;4.70;;;;;;;7.52;100.00;99490.19;20579253;28;20042;-70
2022/11/19 01:14:00;;;;;;;13.25;5.47;;;;;;;7.41;100.00;99486.03;20579535;28;20452;-70
2022/11/19 01:24:02;;;;;;;12.68;6.90;;;;;;;7.35;100.00;99477.47;20642325;28;20081;-71
2022/11/19 01:34:03;;;;;;;17.25;7.70;;;;;;;7.28;100.00;99492.34;20735853;23;20046;-84
2022/11/19 01:44:05;;;;;;;18.45;8.32;;;;;;;7.26;100.00;99491.50;20767180;28;20049;-84
2022/11/19 01:54:06;;;;;;;16.90;8.82;;;;;;;7.33;100.00;99500.94;20764678;28;20057;-84
2022/11/19 02:04:08;;;;;;;14.27;8.30;;;;;;;7.39;100.00;99498.22;20758731;28;20117;-85
2022/11/19 02:14:09;;;;;;;19.60;7.88;;;;;;;7.47;100.00;99490.25;20766579;28;20474;-85
2022/11/19 02:24:11;;;;;;;16.38;8.63;;;;;;;7.53;100.00;99507.56;20834691;28;20510;-85
2022/11/19 02:34:12;;;;;;;17.50;9.32;;;;;;;7.59;100.00;99503.06;20835763;28;20041;-83
2022/11/19 02:54:34;;;;;;;16.63;9.73;;;;;;;7.68;100.00;99508.13;20846350;28;20064;-83
2022/11/19 03:04:35;;;;;;;16.70;9.73;;;;;;;7.68;100.00;99509.88;20822409;28;20064;-84
2022/11/19 03:24:57;;;;;;;17.25;8.95;;;;;;;7.67;100.00;99510.78;20859375;28;20046;-84
2022/11/19 03:34:58;;;;;;;14.48;8.45;;;;;;;7.69;100.00;99522.00;20859758;28;20552;-84
2022/11/19 03:45:00;;;;;;;15.60;7.95;;;;;;;7.77;100.00;99522.75;20837628;28;20050;-84
2022/11/19 03:55:01;;;;;;;14.52;7.47;;;;;;;7.66;100.00;99519.44;20823427;28;20045;-83
2022/11/19 04:05:02;;;;;;;20.33;8.20;;;;;;;7.70;100.00;99529.78;20823817;28;20042;-83
2022/11/19 04:15:04;;;;;;;13.63;7.07;;;;;;;7.68;100.00;99531.56;20825401;28;20049;-84
2022/11/19 04:25:05;;;;;;;13.68;7.03;;;;;;;7.66;100.00;99530.72;20820115;28;20100;-84
2022/11/19 04:35:07;;;;;;;14.55;7.25;;;;;;;7.75;100.00;99534.06;20824021;28;20053;-84
2022/11/19 04:45:08;;;;;;;10.68;6.18;;;;;;;7.70;100.00;99539.34;20805386;28;20050;-84
2022/11/19 04:55:09;;;;;;;11.35;5.90;;;;;;;7.69;100.00;99546.31;20741097;28;20046;-84
2022/11/19 05:05:11;;;;;;;13.68;6.70;;;;;;;7.71;100.00;99551.50;20732974;28;20092;-83
2022/11/19 05:15:12;;;;;;;12.05;5.68;;;;;;;7.70;100.00;99557.59;20734475;28;20097;-84
2022/11/19 05:25:14;;;;;;;10.45;5.63;;;;;;;7.67;100.00;99549.84;20804333;28;20111;-83
2022/11/19 05:35:15;;;;;;;9.25;4.78;;;;;;;7.62;100.00;99564.69;20826960;28;20438;-84
2022/11/19 05:45:16;;;;;;;10.80;4.35;;;;;;;7.62;100.00;99564.69;20819676;28;20383;-85
2022/11/19 05:55:19;;;;;;;10.88;4.60;;;;;;;7.59;100.00;99572.56;20847176;28;20057;-85
2022/11/19 06:05:20;;;;;;;8.60;4.80;;;;;;;7.58;100.00;99579.53;20828944;28;20045;-83
2022/11/19 06:15:22;;;;;;;11.23;5.60;;;;;;;7.56;100.00;99576.06;20813312;28;20076;-84
2022/11/19 06:25:23;;;;;;;11.52;5.70;;;;;;;7.60;100.00;99569.91;20813264;28;20067;-84
2022/11/19 06:35:26;;;;;;;9.43;5.03;;;;;;;7.64;100.00;99584.63;20825990;28;20397;-83
2022/11/19 06:45:27;;;;;;;12.75;6.35;;;;;;;7.63;100.00;99576.84;20849495;28;20132;-83
2022/11/19 06:55:29;;;;;;;10.68;5.43;;;;;;;7.61;100.00;99602.88;20839596;28;20647;-82
2022/11/19 07:05:31;;;;;;;11.50;5.00;;;;;;;7.66;100.00;99613.25;20848798;28;20056;-82
2022/11/19 07:15:32;;;;;;;9.68;5.50;;;;;;;7.69;100.00;99615.81;20835941;28;20571;-82
2022/11/19 07:25:33;;;;;;;11.80;6.18;;;;;;;7.71;100.00;99627.94;20818414;28;20049;-83
2022/11/19 07:35:35;;;;;;;11.18;5.63;;;;;;;7.90;100.00;99627.59;20752381;28;20046;-82
2022/11/19 07:45:36;;;;;;;13.50;6.78;;;;;;;7.89;100.00;99634.56;20776877;28;20046;-82
2022/11/19 07:55:38;;;;;;;12.73;7.45;;;;;;;7.87;100.00;99646.78;20757439;28;20466;-83
2022/11/19 08:05:39;;;;;;;13.68;7.38;;;;;;;7.87;100.00;99649.38;20754817;28;20046;-82
2022/11/19 08:15:41;;;;;;;15.65;7.55;;;;;;;7.97;100.00;99645.72;20733612;28;20076;-83
2022/11/19 08:25:43;;;;;;;13.13;6.25;;;;;;;7.81;100.00;99653.81;20699700;28;20570;-82
2022/11/19 08:35:44;;;;;;;10.70;5.85;;;;;;;7.93;100.00;99664.91;20740676;28;20056;-82
2022/11/19 08:45:45;;;;;;;15.43;6.22;;;;;;;8.04;100.00;99676.91;20763719;28;20097;-82
2022/11/19 08:55:47;;;;;;;21.30;8.15;;;;;;;8.05;100.00;99684.72;20755401;28;20048;-83
2022/11/19 09:05:48;;;;;;;17.70;6.88;;;;;;;8.15;100.00;99691.50;20737516;28;20476;-82
2022/11/19 09:15:50;;;;;;;11.50;5.15;;;;;;;8.11;100.00;99699.38;20773990;28;20517;-84
2022/11/19 09:25:51;;;;;;;14.85;5.50;;;;;;;8.12;100.00;99701.09;20758311;28;20046;-84
2022/11/19 09:35:52;;;;;;;8.23;3.22;;;;;;;8.05;100.00;99704.69;20749806;28;20050;-82
2022/11/19 09:45:54;;;;;;;18.23;4.95;;;;;;;8.12;100.00;99716.75;20757081;28;20054;-82
2022/11/19 09:55:55;;;;;;;8.05;2.80;;;;;;;8.21;100.00;99732.25;20755452;28;20050;-83
2022/11/19 10:05:57;;;;;;;7.03;2.88;;;;;;;8.27;100.00;99726.91;20758877;28;20044;-82
2022/11/19 10:15:58;;;;;;;11.75;4.10;;;;;;;8.30;100.00;99726.88;20757711;28;20066;-84
2022/11/19 10:26:00;;;;;;;8.27;3.95;;;;;;;8.25;100.00;99730.44;20762244;28;20529;-83
2022/11/19 10:36:01;;;;;;;8.15;3.10;;;;;;;8.31;100.00;99725.13;20752002;28;20064;-84
2022/11/19 10:46:03;;;;;;;19.20;3.65;;;;;;;8.35;100.00;99724.19;20749747;28;20050;-84
2022/11/19 10:56:04;;;;;;;9.38;2.75;;;;;;;8.45;100.00;99725.78;20747218;28;20088;-84
2022/11/19 11:06:08;;;;;;;12.02;3.28;;;;;;;8.44;100.00;99719.69;20751812;28;20057;-85
2022/11/19 11:16:10;;;;;;;11.13;3.20;;;;;;;8.41;100.00;99719.75;20750314;28;20045;-85
2022/11/19 11:26:11;;;;;;;9.95;3.30;;;;;;;8.52;100.00;99716.94;20844303;28;20046;-85
2022/11/19 11:36:13;;;;;;;6.80;3.22;;;;;;;8.50;100.00;99708.28;20835300;28;20107;-84
2022/11/19 11:46:14;;;;;;;6.82;3.17;;;;;;;8.40;100.00;99711.94;20827816;28;20053;-84
2022/11/19 11:56:15;;;;;;;7.70;3.58;;;;;;;8.56;100.00;99712.53;20827328;28;20065;-84
2022/11/19 12:06:17;;;;;;;9.70;4.00;;;;;;;8.65;100.00;99704.53;20788107;28;20102;-84
2022/11/19 12:16:18;;;;;;;7.30;3.70;;;;;;;8.54;100.00;99702.13;20748417;28;20061;-85
2022/11/19 12:26:20;;;;;;;19.45;10.82;;;;;;;7.61;100.00;99722.72;20751096;28;20049;-84
2022/11/19 12:36:21;;;;;;;18.77;12.45;;;;;;;6.53;100.00;99734.50;20740563;28;20052;-84
2022/11/19 12:46:22;;;;;;;20.13;12.52;;;;;;;6.40;100.00;99741.53;20743860;28;20432;-83
2022/11/19 12:56:24;;;;;;;15.95;10.13;;;;;;;6.25;100.00;99734.75;20741188;28;20052;-84
2022/11/19 13:06:25;;;;;;;14.45;8.30;;;;;;;6.26;100.00;99744.28;20741449;28;20096;-83
2022/11/19 13:16:27;;;;;;;13.65;7.22;;;;;;;5.66;100.00;99759.44;20736177;28;20050;-85
2022/11/19 13:26:28;;;;;;;11.82;6.68;;;;;;;5.57;100.00;99760.34;20758019;28;20061;-84
2022/11/19 13:36:29;;;;;;;12.07;6.82;;;;;;;5.23;100.00;99771.75;20739882;28;20042;-84
2022/11/19 13:46:31;;;;;;;16.75;9.68;;;;;;;5.40;100.00;99773.41;20739361;28;20054;-83
2022/11/19 13:56:32;;;;;;;13.32;7.57;;;;;;;5.18;100.00;99783.91;20753427;28;20038;-83
2022/11/19 14:06:34;;;;;;;12.30;6.65;;;;;;;5.05;100.00;99781.34;20703372;28;20046;-84
2022/11/19 14:26:55;;;;;;;11.38;6.95;;;;;;;4.80;100.00;99780.53;20697199;28;20092;-85
2022/11/19 14:36:57;;;;;;;10.50;6.22;;;;;;;4.61;100.00;99794.41;20690821;28;20137;-84
2022/11/19 14:46:58;;;;;;;11.30;6.65;;;;;;;4.42;100.00;99795.28;20670030;28;20054;-84
2022/11/19 14:57:01;;;;;;;13.60;7.25;;;;;;;4.54;100.00;99793.53;20654816;28;20042;-84
2022/11/19 15:07:03;;;;;;;18.70;9.65;;;;;;;4.58;100.00;99804.78;20719446;28;20469;-84
2022/11/19 15:17:04;;;;;;;10.77;6.40;;;;;;;4.56;100.00;99812.56;20749434;28;20045;-83
2022/11/19 15:27:05;;;;;;;11.65;6.25;;;;;;;4.43;100.00;99820.34;20747207;28;20046;-83
2022/11/19 15:37:07;;;;;;;10.63;5.68;;;;;;;4.39;100.00;99811.69;20767614;28;20108;-84
2022/11/19 15:47:08;;;;;;;13.85;8.95;;;;;;;4.34;100.00;99824.66;20825682;28;20053;-84
2022/11/19 15:57:13;;;;;;;14.30;9.48;;;;;;;4.32;100.00;99828.13;20764554;28;20434;-83
2022/11/19 16:07:20;;;;;;;13.57;8.15;;;;;;;4.10;100.00;99832.41;20735576;28;20050;-84
2022/11/19 16:18:11;;;;;;;15.35;10.27;;;;;;;4.14;100.00;99839.34;20765828;28;20042;-84
2022/11/19 16:29:07;;;;;;;13.65;7.93;;;;;;;4.30;100.00;99822.06;20589956;28;20043;-84
2022/11/19 16:39:46;;;;;;;13.27;7.53;;;;;;;4.23;100.00;99836.75;20637292;28;20593;-83
2022/11/19 16:49:51;;;;;;;11.85;7.28;;;;;;;4.23;100.00;99844.53;20664802;28;20054;-83
2022/11/19 16:59:55;;;;;;;16.80;9.23;;;;;;;4.04;100.00;99856.59;20668738;28;20097;-82
2022/11/19 17:10:00;;;;;;;;;;;;;;;4.15;100.00;99856.59;20678769;28;20058;-84
2022/11/19 17:20:47;;;;;;;15.18;9.23;;;;;;;4.34;100.00;99873.91;20769063;28;20015;-83
2022/11/19 17:31:15;;;;;;;20.23;12.18;;;;;;;4.13;100.00;99879.06;20760984;28;20041;-83
2022/11/19 17:52:22;;;;;;;15.70;9.65;;;;;;;3.94;100.00;99898.88;20680729;28;20119;-82
2022/11/19 18:02:53;;;;;;;16.92;9.27;;;;;;;3.55;100.00;99909.94;20724862;28;20069;-83
2022/11/19 18:24:44;;;;;;;21.05;12.05;;;;;;;3.56;100.00;99922.88;20721268;28;20592;-82
2022/11/19 18:35:38;;;;;;;18.02;10.40;;;;;;;3.68;100.00;99922.06;20577726;28;20498;-83
2022/11/19 18:46:23;;;;;;;16.42;9.60;;;;;;;3.63;100.00;99928.09;20782865;23;20429;-73
2022/11/19 18:56:24;;;;;;;14.57;8.32;;;;;;;3.51;100.00;99939.25;20867707;23;20064;-77
2022/11/19 19:06:26;;;;;;;18.40;10.20;;;;;;;3.58;100.00;99936.69;20647200;28;20050;-77
2022/11/19 19:16:27;;;;;;;19.90;10.98;;;;;;;3.43;100.00;99935.75;20678809;28;20119;-75
2022/11/19 19:26:28;;;;;;;21.75;12.80;;;;;;;3.53;100.00;99940.13;20643868;28;20062;-76
2022/11/19 19:36:30;;;;;;;21.10;12.88;;;;;;;3.80;100.00;99942.84;20640225;28;20509;-76
2022/11/19 19:46:31;;;;;;;13.57;7.55;;;;;;;3.65;100.00;99962.63;20649112;28;20105;-76
2022/11/19 19:56:33;;;;;;;16.00;8.20;;;;;;;3.44;100.00;99960.78;20656514;28;20046;-77
2022/11/19 20:06:34;;;;;;;14.82;8.15;;;;;;;3.34;100.00;99975.38;20657685;28;20502;-77
2022/11/19 20:16:35;;;;;;;16.67;8.77;;;;;;;3.48;100.00;99971.16;20654913;28;20392;-77
2022/11/19 20:26:37;;;;;;;15.93;9.85;;;;;;;3.43;100.00;99967.66;20657032;28;20066;-77
2022/11/19 20:36:38;;;;;;;22.33;12.95;;;;;;;3.52;100.00;99982.41;20654646;28;20050;-76
2022/11/19 20:46:40;;;;;;;20.25;11.45;;;;;;;3.51;100.00;99980.66;20653720;28;20054;-76
2022/11/19 20:56:41;;;;;;;18.65;10.63;;;;;;;3.54;100.00;99980.66;20655019;28;20414;-76
2022/11/19 21:06:43;;;;;;;20.05;10.98;;;;;;;3.67;100.00;99982.47;20652238;28;20058;-76
2022/11/19 21:16:44;;;;;;;21.13;11.65;;;;;;;3.74;100.00;99984.25;20653184;28;20054;-77
2022/11/19 21:26:46;;;;;;;23.15;12.82;;;;;;;3.63;100.00;99985.91;20653893;28;20077;-78
2022/11/19 21:36:47;;;;;;;20.25;10.88;;;;;;;3.53;100.00;99987.56;20651335;28;20061;-79
2022/11/19 21:46:48;;;;;;;22.23;12.23;;;;;;;3.63;100.00;99991.06;20651592;28;20050;-77
2022/11/19 21:56:50;;;;;;;22.13;11.32;;;;;;;3.77;100.00;99981.66;20652943;28;20145;-80
2022/11/19 22:06:51;;;;;;;29.27;13.80;;;;;;;3.69;100.00;99985.97;20650865;28;20100;-78
2022/11/19 22:16:53;;;;;;;20.23;10.73;;;;;;;3.67;100.00;99979.03;20648975;28;20046;-77
2022/11/19 22:26:54;;;;;;;19.52;10.60;;;;;;;3.71;100.00;99989.41;20648472;28;20062;-78
2022/11/19 22:36:56;;;;;;;18.60;10.00;;;;;;;3.78;100.00;99969.56;20652481;28;20050;-77
2022/11/19 22:46:59;;;;;;;21.70;11.07;;;;;;;3.69;100.00;99966.94;20648759;28;20503;-78
2022/11/19 22:57:01;;;;;;;23.08;11.45;;;;;;;3.67;100.00;99968.66;20648113;28;20481;-77
2022/11/19 23:07:02;;;;;;;22.38;10.82;;;;;;;3.78;100.00;99962.66;20652968;28;20050;-76
2022/11/19 23:17:04;;;;;;;21.08;11.30;;;;;;;3.72;100.00;99965.25;20666991;23;20144;-82
2022/11/19 23:27:13;;;;;;;22.42;11.75;;;;;;;3.83;100.00;99968.75;20630405;28;20047;-81
2022/11/19 23:37:22;;;;;;;20.05;10.63;;;;;;;3.74;100.00;99958.38;20625643;28;20442;-82
2022/11/19 23:47:23;;;;;;;19.40;9.80;;;;;;;3.75;100.00;99954.91;20698668;28;20050;-81
2022/11/19 23:58:09;;;;;;;;;;;;;;;3.92;100.00;99946.34;20701507;28;20596;-82
